Ogden Dunes, Indiana
Current Conditions -  °F | °C
As of 8:56 PM on Thursday 27 Nov 2014 (Local Time) from KVPZ Reporting Station
Overcast Overcast  
Wind Chill: 12°   Ceiling: 3500
Heat Index: 21°   Visibility: 10mi
Dew Point: 13°   Wind: 7mph
Humidity: 71%   Direction: 270°W
Pressure: 30.39"   Gusts: NA
Location:  41.5825°N, 87.1726°W
Report Text: KVPZ 280256Z AUTO 27006KT 10SM OVC035 M06/M11 A3039 RMK AO2 SNB02E12 SLP301 P0000 60000 T10611106 TSNO $
Loading
Personal Weather Stations






























Interactive Weather Map New forecast layout! Learn more

10-Day Weather Forecast

Advertisements
Track Severe Weather on mobile